Time;durP1;ratioP1;P1;durP2;ratioP2;P2;SDS_P1;SDS_P2;PMS_P1;PMS_P2;Temp;Humidity;BMP_temperature;BMP_pressure;BME280_temperature;BME280_humidity;BME280_pressure;Samples;Min_cycle;Max_cycle;Signal;HPM_P1;HPM_P2
2023/07/10 00:01:58;;;;;;;16.95;12.77;;;23.60;77.80;;;;;;4908885;29;20072;-51
2023/07/10 00:04:25;;;;;;;15.10;13.38;;;23.60;77.80;;;;;;4912357;29;20047;-50
2023/07/10 00:06:56;;;;;;;16.55;13.52;;;23.50;78.00;;;;;;4912421;29;20498;-49
2023/07/10 00:09:25;;;;;;;16.60;14.30;;;23.50;78.20;;;;;;4908154;29;20044;-51
2023/07/10 00:11:52;;;;;;;14.38;12.85;;;23.50;78.30;;;;;;4908419;29;20099;-49
2023/07/10 00:14:22;;;;;;;17.73;15.88;;;23.50;78.40;;;;;;4895802;29;20128;-52
2023/07/10 00:16:50;;;;;;;16.85;13.98;;;23.50;78.30;;;;;;4911051;29;20124;-52
2023/07/10 00:19:20;;;;;;;14.10;12.32;;;23.40;78.50;;;;;;4911755;29;20103;-52
2023/07/10 00:21:51;;;;;;;13.85;12.45;;;23.40;78.40;;;;;;4905359;29;20505;-50
2023/07/10 00:24:18;;;;;;;15.80;13.05;;;23.40;78.10;;;;;;4904302;29;20040;-50
2023/07/10 00:26:49;;;;;;;15.45;13.70;;;23.40;78.40;;;;;;4912239;29;20082;-51
2023/07/10 00:29:31;;;;;;;16.55;13.30;;;23.40;78.30;;;;;;4913396;29;20052;-51
2023/07/10 00:32:02;;;;;;;13.50;12.15;;;23.40;78.40;;;;;;4912629;29;20567;-49
2023/07/10 00:34:29;;;;;;;15.35;12.73;;;23.40;78.50;;;;;;4894214;29;20051;-50
2023/07/10 00:37:04;;;;;;;15.73;13.27;;;23.40;78.80;;;;;;4895448;29;20040;-52
2023/07/10 00:39:37;;;;;;;16.75;14.68;;;23.40;78.70;;;;;;4895264;29;20218;-51
2023/07/10 00:42:33;;;;;;;16.30;14.45;;;23.40;78.30;;;;;;4878657;29;20040;-49
2023/07/10 00:45:06;;;;;;;21.27;14.55;;;23.40;78.20;;;;;;4894760;29;20473;-51
2023/07/10 00:47:40;;;;;;;21.83;14.55;;;23.40;78.10;;;;;;4895475;29;20131;-50
2023/07/10 00:50:21;;;;;;;18.33;13.57;;;23.40;77.90;;;;;;4895222;29;20590;-50
2023/07/10 00:52:52;;;;;;;17.90;14.73;;;23.40;78.10;;;;;;4906544;29;20127;-50
2023/07/10 00:55:33;;;;;;;16.15;14.25;;;23.40;77.50;;;;;;4896572;29;20036;-49
2023/07/10 00:58:29;;;;;;;18.48;14.02;;;23.40;77.20;;;;;;4895429;29;20052;-51
2023/07/10 01:01:08;;;;;;;19.95;14.50;;;23.40;76.90;;;;;;4894980;29;20414;-47
2023/07/10 01:03:39;;;;;;;19.38;16.15;;;23.30;77.10;;;;;;4912003;29;20462;-48
2023/07/10 01:06:12;;;;;;;17.67;14.23;;;23.40;77.80;;;;;;4892340;29;20040;-51
2023/07/10 01:08:43;;;;;;;19.25;15.68;;;23.30;77.40;;;;;;4912443;29;20040;-48
2023/07/10 01:11:15;;;;;;;18.38;16.00;;;23.30;77.70;;;;;;4895288;29;20048;-51
2023/07/10 01:13:44;;;;;;;24.70;15.90;;;23.30;77.70;;;;;;4893596;29;20120;-50
2023/07/10 01:16:13;;;;;;;19.13;15.63;;;23.30;77.40;;;;;;4898822;29;20137;-48
2023/07/10 01:18:45;;;;;;;18.73;15.40;;;23.30;77.10;;;;;;4894540;29;20399;-51
2023/07/10 01:21:32;;;;;;;20.30;15.48;;;23.30;77.30;;;;;;4893379;29;20048;-48
2023/07/10 01:24:05;;;;;;;17.75;14.98;;;23.30;77.80;;;;;;4906102;29;20401;-48
2023/07/10 01:26:39;;;;;;;17.08;14.88;;;23.30;77.50;;;;;;4897566;29;20055;-52
2023/07/10 01:29:23;;;;;;;16.08;13.95;;;23.20;78.20;;;;;;4916127;29;20505;-52
2023/07/10 01:31:53;;;;;;;15.02;13.27;;;23.20;77.40;;;;;;4905727;29;20527;-47
2023/07/10 01:34:28;;;;;;;15.80;13.77;;;23.20;77.50;;;;;;4913343;29;20123;-49
2023/07/10 01:36:58;;;;;;;18.65;13.98;;;23.20;77.20;;;;;;4909936;29;20044;-48
2023/07/10 01:39:44;;;;;;;14.77;12.45;;;23.20;76.90;;;;;;4915688;29;20040;-47
2023/07/10 01:42:13;;;;;;;16.23;12.60;;;23.20;76.70;;;;;;4897620;29;20616;-52
2023/07/10 01:44:44;;;;;;;17.00;13.10;;;23.20;76.40;;;;;;4896518;29;20651;-50
2023/07/10 01:47:14;;;;;;;16.48;12.98;;;23.20;76.70;;;;;;4904287;29;20603;-47
2023/07/10 01:49:50;;;;;;;16.55;13.10;;;23.10;76.60;;;;;;4915874;29;20115;-48
2023/07/10 01:52:23;;;;;;;13.93;12.43;;;23.10;77.10;;;;;;4913756;29;20604;-50
2023/07/10 01:54:53;;;;;;;15.30;10.73;;;23.10;76.50;;;;;;4880528;29;20048;-51
2023/07/10 01:57:24;;;;;;;15.88;11.98;;;23.10;76.20;;;;;;4914457;29;20428;-50
2023/07/10 01:59:52;;;;;;;13.80;12.13;;;23.10;76.30;;;;;;4899376;29;20417;-48
2023/07/10 02:02:22;;;;;;;14.38;11.00;;;23.10;76.60;;;;;;4903957;29;20136;-51
2023/07/10 02:04:51;;;;;;;15.25;11.00;;;23.00;77.00;;;;;;4891382;29;20040;-46
2023/07/10 02:07:20;;;;;;;14.77;11.50;;;23.00;76.70;;;;;;4914561;29;20043;-49
2023/07/10 02:09:50;;;;;;;13.70;10.68;;;23.00;76.30;;;;;;4897230;29;20055;-51
2023/07/10 02:12:21;;;;;;;11.38;10.18;;;23.00;76.20;;;;;;4884723;29;20076;-48
2023/07/10 02:14:47;;;;;;;11.88;9.90;;;23.00;76.00;;;;;;4896379;29;20047;-51
2023/07/10 02:17:14;;;;;;;13.98;9.65;;;23.00;76.00;;;;;;4914303;29;20048;-49
2023/07/10 02:19:45;;;;;;;11.65;10.43;;;23.10;76.30;;;;;;4892225;29;20048;-51
2023/07/10 02:22:11;;;;;;;12.15;9.57;;;23.00;76.40;;;;;;4901330;29;20064;-51
2023/07/10 02:24:41;;;;;;;12.07;9.38;;;23.00;76.70;;;;;;4888548;29;20045;-51
2023/07/10 02:27:11;;;;;;;10.27;9.20;;;23.00;76.10;;;;;;4913641;29;20417;-51
2023/07/10 02:29:40;;;;;;;11.55;8.70;;;23.00;76.30;;;;;;4898014;29;20059;-51
2023/07/10 02:32:07;;;;;;;10.80;9.00;;;23.10;76.40;;;;;;4913620;29;20477;-51
2023/07/10 02:34:41;;;;;;;13.73;9.57;;;23.00;76.30;;;;;;4890538;29;20104;-51
2023/07/10 02:37:08;;;;;;;11.75;9.05;;;23.00;76.30;;;;;;4913982;29;20047;-51
2023/07/10 02:39:38;;;;;;;10.27;8.40;;;23.00;76.30;;;;;;4897788;29;20099;-51
2023/07/10 02:42:07;;;;;;;11.15;8.13;;;23.00;76.20;;;;;;4892426;29;20052;-52
2023/07/10 02:44:35;;;;;;;13.55;8.35;;;23.00;75.80;;;;;;4910618;29;20032;-51
2023/07/10 02:47:02;;;;;;;8.38;7.35;;;23.00;75.70;;;;;;4913653;29;20059;-49
2023/07/10 02:49:31;;;;;;;8.57;7.47;;;23.00;75.30;;;;;;4897620;29;20072;-51
2023/07/10 02:51:57;;;;;;;8.95;6.70;;;22.90;74.80;;;;;;4904846;29;20072;-50
2023/07/10 02:54:24;;;;;;;7.70;6.47;;;22.90;74.80;;;;;;4903694;29;20052;-51
2023/07/10 02:56:57;;;;;;;6.47;5.78;;;23.00;74.40;;;;;;4904369;29;20134;-52
2023/07/10 02:59:29;;;;;;;8.60;6.20;;;22.90;74.20;;;;;;4914297;29;20048;-52
2023/07/10 03:02:00;;;;;;;8.85;5.80;;;22.90;74.50;;;;;;4909797;29;20036;-48
2023/07/10 03:04:26;;;;;;;6.78;5.90;;;22.80;74.40;;;;;;4906129;29;20543;-52
2023/07/10 03:06:53;;;;;;;7.43;6.05;;;22.80;74.00;;;;;;4895666;29;20043;-51
2023/07/10 03:09:22;;;;;;;8.85;5.53;;;22.80;74.00;;;;;;4910878;29;20048;-52
2023/07/10 03:11:49;;;;;;;7.47;5.88;;;22.80;74.00;;;;;;4907245;29;20040;-52
2023/07/10 03:14:18;;;;;;;7.65;6.40;;;22.80;74.20;;;;;;4914225;29;20044;-51
2023/07/10 03:16:49;;;;;;;9.95;5.93;;;22.80;74.40;;;;;;4895645;29;20517;-51
2023/07/10 03:19:18;;;;;;;6.93;5.78;;;22.80;74.00;;;;;;4906171;29;20067;-52
2023/07/10 03:21:45;;;;;;;7.43;5.65;;;22.80;73.80;;;;;;4914784;29;20242;-51
2023/07/10 03:24:13;;;;;;;7.55;5.30;;;22.80;73.40;;;;;;4908318;29;20051;-52
2023/07/10 03:26:41;;;;;;;7.60;5.22;;;22.70;73.20;;;;;;4914317;29;20123;-48
2023/07/10 03:29:11;;;;;;;6.82;5.25;;;22.70;73.10;;;;;;4892627;29;20059;-52
2023/07/10 03:31:38;;;;;;;7.00;5.20;;;22.70;73.20;;;;;;4912086;29;20465;-51
2023/07/10 03:34:05;;;;;;;9.48;5.20;;;22.70;72.80;;;;;;4913611;29;20048;-52
2023/07/10 03:36:35;;;;;;;7.75;4.80;;;22.70;73.00;;;;;;4912823;29;20461;-51
2023/07/10 03:39:02;;;;;;;9.02;6.45;;;22.70;73.00;;;;;;4911053;29;20095;-52
2023/07/10 03:41:29;;;;;;;5.35;4.47;;;22.70;72.90;;;;;;4914694;29;20047;-52
2023/07/10 03:43:58;;;;;;;6.75;4.35;;;22.60;72.60;;;;;;4913495;29;20040;-51
2023/07/10 03:46:27;;;;;;;8.63;4.57;;;22.60;72.80;;;;;;4911635;29;20051;-51
2023/07/10 03:48:54;;;;;;;5.38;4.85;;;22.60;72.80;;;;;;4911678;29;20040;-52
2023/07/10 03:51:23;;;;;;;5.90;4.32;;;22.60;72.70;;;;;;4914470;29;20044;-51
2023/07/10 03:53:54;;;;;;;7.07;5.25;;;22.60;72.80;;;;;;4908893;29;20044;-50
2023/07/10 03:56:20;;;;;;;4.55;4.13;;;22.60;72.50;;;;;;4911798;29;20043;-51
2023/07/10 03:58:49;;;;;;;4.93;4.18;;;22.60;72.30;;;;;;4912942;29;20119;-48
2023/07/10 04:01:17;;;;;;;9.77;4.57;;;22.60;72.10;;;;;;4914515;29;20154;-49
2023/07/10 04:03:44;;;;;;;7.82;4.72;;;22.60;72.00;;;;;;4890326;29;20056;-49
2023/07/10 04:06:14;;;;;;;8.35;5.25;;;22.60;71.90;;;;;;4909940;29;20096;-49
2023/07/10 04:08:51;;;;;;;9.48;5.78;;;22.70;71.90;;;;;;4912643;29;20494;-51
2023/07/10 04:11:20;;;;;;;6.95;4.22;;;22.60;71.70;;;;;;4913217;29;20040;-48
2023/07/10 04:13:49;;;;;;;5.90;4.68;;;22.70;71.70;;;;;;4905296;29;20052;-51
2023/07/10 04:16:23;;;;;;;6.00;4.65;;;22.70;71.80;;;;;;4913843;29;20048;-51
2023/07/10 04:18:51;;;;;;;5.72;4.53;;;22.70;71.30;;;;;;4912860;29;20051;-48
2023/07/10 04:21:26;;;;;;;4.97;4.43;;;22.70;71.50;;;;;;4903070;29;20079;-51
2023/07/10 04:23:53;;;;;;;10.38;5.20;;;22.60;71.40;;;;;;4898647;29;20072;-51
2023/07/10 04:26:27;;;;;;;6.78;4.78;;;22.70;71.60;;;;;;4912545;29;20044;-50
2023/07/10 04:28:59;;;;;;;8.38;4.75;;;22.70;71.60;;;;;;4913159;29;20040;-51
2023/07/10 04:31:31;;;;;;;6.75;4.55;;;22.60;71.60;;;;;;4910657;29;20481;-51
2023/07/10 04:33:58;;;;;;;7.30;5.25;;;22.70;71.50;;;;;;4907521;29;20047;-51
2023/07/10 04:36:25;;;;;;;7.68;5.07;;;22.70;71.50;;;;;;4909213;29;20104;-49
2023/07/10 04:38:52;;;;;;;5.03;4.35;;;22.70;71.50;;;;;;4912707;29;20568;-51
2023/07/10 04:41:21;;;;;;;7.18;5.45;;;22.70;71.40;;;;;;4911918;29;20036;-48
2023/07/10 04:43:48;;;;;;;5.13;4.63;;;22.70;71.50;;;;;;4903370;29;20044;-52
2023/07/10 04:46:17;;;;;;;7.65;4.80;;;22.60;71.50;;;;;;4919179;29;20136;-52
2023/07/10 04:48:44;;;;;;;6.97;5.35;;;22.70;71.60;;;;;;4913441;29;20059;-52
2023/07/10 04:51:13;;;;;;;5.72;4.25;;;22.60;71.30;;;;;;4910231;29;20131;-48
2023/07/10 04:53:42;;;;;;;7.43;4.85;;;22.70;71.30;;;;;;4907119;29;20056;-49
2023/07/10 04:56:11;;;;;;;5.65;4.22;;;22.70;71.30;;;;;;4914432;29;20044;-48
2023/07/10 04:58:56;;;;;;;5.22;4.28;;;22.70;71.00;;;;;;4914982;29;20044;-48
2023/07/10 05:01:26;;;;;;;5.55;4.35;;;22.70;71.00;;;;;;4913764;29;20056;-51
2023/07/10 05:03:53;;;;;;;7.55;4.10;;;22.70;70.90;;;;;;4913352;29;20057;-50
2023/07/10 05:06:22;;;;;;;5.50;3.78;;;22.70;70.60;;;;;;4916314;29;20032;-50
2023/07/10 05:08:51;;;;;;;5.68;3.38;;;22.70;70.20;;;;;;4915686;29;20466;-51
2023/07/10 05:11:18;;;;;;;6.30;3.20;;;22.80;70.10;;;;;;4904685;29;20080;-52
2023/07/10 05:13:45;;;;;;;6.10;3.40;;;22.70;70.10;;;;;;4914452;29;20107;-52
2023/07/10 05:16:14;;;;;;;4.68;2.95;;;22.80;70.30;;;;;;4916574;29;20055;-51
2023/07/10 05:18:41;;;;;;;4.32;3.58;;;22.80;70.30;;;;;;4914105;29;20075;-51
2023/07/10 05:21:08;;;;;;;5.85;3.55;;;22.80;70.20;;;;;;4909779;29;20047;-52
2023/07/10 05:23:35;;;;;;;5.28;3.55;;;22.80;70.20;;;;;;4908926;29;20058;-52
2023/07/10 05:26:11;;;;;;;4.20;3.72;;;22.80;70.10;;;;;;4914390;29;20393;-52
2023/07/10 05:28:38;;;;;;;5.43;4.15;;;22.80;69.80;;;;;;4912881;29;20520;-51
2023/07/10 05:31:07;;;;;;;5.07;3.70;;;22.80;69.90;;;;;;4913200;29;20048;-52
2023/07/10 05:33:34;;;;;;;5.55;4.30;;;22.80;69.90;;;;;;4903907;29;20055;-51
2023/07/10 05:36:04;;;;;;;5.03;4.32;;;22.80;70.10;;;;;;4914489;29;20131;-51
2023/07/10 05:38:34;;;;;;;4.80;3.75;;;22.80;70.10;;;;;;4914766;29;20055;-50
2023/07/10 05:41:02;;;;;;;4.55;3.83;;;22.80;70.40;;;;;;4908206;29;20056;-50
2023/07/10 05:43:30;;;;;;;6.72;4.32;;;22.90;70.50;;;;;;4913592;29;20123;-51
2023/07/10 05:45:57;;;;;;;8.88;4.90;;;22.90;70.40;;;;;;4913923;29;20667;-52
2023/07/10 05:48:25;;;;;;;7.22;5.05;;;22.90;70.10;;;;;;4919914;29;20438;-51
2023/07/10 05:50:51;;;;;;;5.88;4.93;;;22.90;70.30;;;;;;4903014;29;20036;-52
2023/07/10 05:53:19;;;;;;;8.52;5.63;;;22.90;70.10;;;;;;4902950;29;20059;-49
2023/07/10 05:55:47;;;;;;;7.22;6.13;;;22.80;70.00;;;;;;4911926;29;20750;-48
2023/07/10 05:58:16;;;;;;;6.72;5.63;;;22.80;70.00;;;;;;4914390;29;20052;-49
2023/07/10 06:00:45;;;;;;;6.75;6.10;;;22.80;70.00;;;;;;4913251;29;20425;-51
2023/07/10 06:03:12;;;;;;;9.00;5.90;;;22.80;70.40;;;;;;4913702;29;20135;-51
2023/07/10 06:05:39;;;;;;;8.38;6.75;;;22.80;70.40;;;;;;4896487;29;20039;-50
2023/07/10 06:08:07;;;;;;;9.23;6.38;;;22.80;70.50;;;;;;4913288;29;20143;-51
2023/07/10 06:10:34;;;;;;;9.70;6.70;;;22.80;70.50;;;;;;4911135;29;20123;-49
2023/07/10 06:13:01;;;;;;;8.38;5.97;;;22.90;70.50;;;;;;4907529;29;20076;-50
2023/07/10 06:15:28;;;;;;;8.50;6.00;;;22.90;70.00;;;;;;4911891;29;20058;-48
2023/07/10 06:17:54;;;;;;;8.88;5.55;;;22.90;69.70;;;;;;4910907;29;20093;-47
2023/07/10 06:20:21;;;;;;;8.27;5.20;;;23.00;69.00;;;;;;4909991;29;20701;-51
2023/07/10 06:22:48;;;;;;;8.30;5.63;;;23.10;69.30;;;;;;4912714;29;20120;-52
2023/07/10 06:25:15;;;;;;;6.95;5.15;;;23.10;69.80;;;;;;4915630;29;20432;-47
2023/07/10 06:27:41;;;;;;;7.25;4.32;;;23.20;68.70;;;;;;4915162;29;20055;-52
2023/07/10 06:30:08;;;;;;;7.47;4.45;;;23.30;68.70;;;;;;4914172;29;20048;-52
2023/07/10 06:32:36;;;;;;;7.18;4.72;;;23.30;68.40;;;;;;4911058;29;20044;-52
2023/07/10 06:35:05;;;;;;;6.72;4.30;;;23.40;68.10;;;;;;4904868;29;20048;-50
2023/07/10 06:37:32;;;;;;;5.88;3.63;;;23.40;67.60;;;;;;4915196;29;20119;-52
2023/07/10 06:40:11;;;;;;;3.63;3.25;;;23.50;66.70;;;;;;4911991;29;20617;-50
2023/07/10 06:42:40;;;;;;;3.70;3.00;;;23.60;65.00;;;;;;4900089;29;20678;-51
2023/07/10 06:45:11;;;;;;;4.50;2.50;;;23.60;65.50;;;;;;4896935;29;20044;-52
2023/07/10 06:47:41;;;;;;;4.65;2.60;;;23.50;65.30;;;;;;4912522;29;20131;-52
2023/07/10 06:50:10;;;;;;;7.30;2.78;;;23.50;64.90;;;;;;4907293;29;20514;-50
2023/07/10 06:52:42;;;;;;;4.00;2.40;;;23.50;64.40;;;;;;4909098;29;20123;-52
2023/07/10 06:55:12;;;;;;;4.57;2.65;;;23.40;63.30;;;;;;4908295;29;20086;-51
2023/07/10 06:57:39;;;;;;;4.05;2.20;;;23.40;63.70;;;;;;4913926;29;20044;-50
2023/07/10 07:00:08;;;;;;;3.88;2.10;;;23.30;63.70;;;;;;4896949;29;20044;-50
2023/07/10 07:02:36;;;;;;;3.20;2.33;;;23.30;63.70;;;;;;4900776;29;20040;-49
2023/07/10 07:05:04;;;;;;;5.43;2.17;;;23.30;64.00;;;;;;4906988;29;20511;-52
2023/07/10 07:07:31;;;;;;;5.13;2.10;;;23.30;64.00;;;;;;4914566;29;20052;-52
2023/07/10 07:09:58;;;;;;;2.45;1.70;;;23.30;63.60;;;;;;4904546;29;20036;-51
2023/07/10 07:12:24;;;;;;;1.95;1.70;;;23.30;62.70;;;;;;4911428;29;20040;-54
2023/07/10 07:14:51;;;;;;;3.70;1.80;;;23.30;62.50;;;;;;4912730;29;20063;-48
2023/07/10 07:17:18;;;;;;;3.47;1.30;;;23.30;62.00;;;;;;4910885;29;20051;-51
2023/07/10 07:19:46;;;;;;;2.50;1.45;;;23.30;61.70;;;;;;4910063;29;20139;-50
2023/07/10 07:22:13;;;;;;;2.53;1.48;;;23.30;61.70;;;;;;4912642;29;20043;-49
2023/07/10 07:24:40;;;;;;;3.72;1.75;;;23.30;61.70;;;;;;4905107;29;20116;-51
2023/07/10 07:27:07;;;;;;;3.10;1.30;;;23.30;61.30;;;;;;4914069;29;20485;-50
2023/07/10 07:29:34;;;;;;;2.88;1.60;;;23.30;61.90;;;;;;4904044;29;20049;-52
2023/07/10 07:32:01;;;;;;;1.95;1.30;;;23.40;62.20;;;;;;4908926;29;20048;-48
2023/07/10 07:34:28;;;;;;;3.40;1.80;;;23.40;62.00;;;;;;4912291;29;20119;-51
2023/07/10 07:36:54;;;;;;;1.85;1.60;;;23.40;61.10;;;;;;4911654;29;20119;-51
2023/07/10 07:39:21;;;;;;;4.07;1.48;;;23.40;60.80;;;;;;4910726;29;20044;-49
2023/07/10 07:41:48;;;;;;;2.92;1.40;;;23.40;61.20;;;;;;4913400;29;20099;-52
2023/07/10 07:44:14;;;;;;;2.67;1.30;;;23.40;61.00;;;;;;4913204;29;20135;-50
2023/07/10 07:46:41;;;;;;;2.20;1.23;;;23.40;60.60;;;;;;4905011;29;20048;-52
2023/07/10 07:49:08;;;;;;;2.97;1.33;;;23.50;60.70;;;;;;4911238;29;20464;-51
2023/07/10 07:51:36;;;;;;;5.72;1.42;;;23.50;60.40;;;;;;4913251;29;20074;-49
2023/07/10 07:54:07;;;;;;;3.35;1.65;;;23.50;60.50;;;;;;4904962;29;20040;-52
2023/07/10 07:56:33;;;;;;;2.60;1.45;;;23.60;60.10;;;;;;4910964;29;20059;-49
2023/07/10 07:59:00;;;;;;;1.60;1.50;;;23.60;59.70;;;;;;4912472;29;20052;-51
2023/07/10 08:01:27;;;;;;;4.43;1.65;;;23.60;59.90;;;;;;4910156;29;20075;-53
2023/07/10 08:03:54;;;;;;;3.97;2.03;;;23.60;60.00;;;;;;4911801;29;20040;-52
2023/07/10 08:06:21;;;;;;;3.65;2.08;;;23.60;60.30;;;;;;4907927;29;20107;-48
2023/07/10 08:08:47;;;;;;;3.47;1.83;;;23.70;60.60;;;;;;4911622;29;20132;-48
2023/07/10 08:11:16;;;;;;;3.30;2.00;;;23.70;59.90;;;;;;4912568;29;20044;-52
2023/07/10 08:13:43;;;;;;;3.97;1.80;;;23.70;59.60;;;;;;4911285;29;20041;-48
2023/07/10 08:16:13;;;;;;;4.72;1.75;;;23.80;59.80;;;;;;4894731;29;20112;-48
2023/07/10 08:18:40;;;;;;;3.92;1.73;;;23.80;60.00;;;;;;4907447;29;20036;-48
2023/07/10 08:21:10;;;;;;;3.78;1.80;;;23.80;59.30;;;;;;4908812;29;20075;-50
2023/07/10 08:23:37;;;;;;;3.95;1.50;;;23.80;59.30;;;;;;4912135;29;20043;-48
2023/07/10 08:26:04;;;;;;;1.40;1.30;;;23.90;58.60;;;;;;4916009;29;20048;-53
2023/07/10 08:28:31;;;;;;;2.92;1.25;;;23.90;59.10;;;;;;4915475;29;20036;-50
2023/07/10 08:30:58;;;;;;;2.70;1.35;;;23.90;59.60;;;;;;4913473;29;20036;-52
2023/07/10 08:33:26;;;;;;;3.05;1.67;;;24.00;58.60;;;;;;4909539;29;20433;-52
2023/07/10 08:35:57;;;;;;;3.08;1.42;;;24.00;58.70;;;;;;4915898;29;20048;-52
2023/07/10 08:38:24;;;;;;;3.85;1.80;;;24.00;58.00;;;;;;4916588;29;20059;-47
2023/07/10 08:41:00;;;;;;;3.45;1.77;;;24.10;58.00;;;;;;4913386;29;20056;-52
2023/07/10 08:43:40;;;;;;;4.88;1.35;;;24.10;56.90;;;;;;4915816;29;20048;-48
2023/07/10 08:46:11;;;;;;;2.22;1.40;;;24.10;56.10;;;;;;4892949;29;20100;-52
2023/07/10 08:48:45;;;;;;;2.88;1.23;;;24.20;57.00;;;;;;4904326;29;20051;-53
2023/07/10 08:51:20;;;;;;;1.65;1.10;;;24.20;57.20;;;;;;4910746;29;20119;-51
2023/07/10 08:54:01;;;;;;;3.03;1.15;;;24.20;55.60;;;;;;4911028;29;20056;-53
2023/07/10 08:56:42;;;;;;;2.65;1.50;;;24.20;56.60;;;;;;4914864;29;20139;-51
2023/07/10 08:59:33;;;;;;;4.50;1.95;;;24.30;56.10;;;;;;4917020;29;20052;-51
2023/07/10 09:02:00;;;;;;;1.25;1.00;;;24.30;55.80;;;;;;4907397;29;20080;-52
2023/07/10 09:04:33;;;;;;;1.80;1.20;;;24.30;56.40;;;;;;4913783;29;20071;-51
2023/07/10 09:07:01;;;;;;;3.08;1.50;;;24.40;55.70;;;;;;4915937;29;20148;-50
2023/07/10 09:09:41;;;;;;;1.50;1.10;;;24.40;56.00;;;;;;4915663;29;20048;-49
2023/07/10 09:12:29;;;;;;;5.97;1.98;;;24.40;55.70;;;;;;4907812;29;20512;-49
2023/07/10 09:15:04;;;;;;;3.17;1.10;;;24.40;55.30;;;;;;4908936;29;20048;-51
2023/07/10 09:18:11;;;;;;;3.97;1.48;;;24.50;55.50;;;;;;4916065;29;20474;-51
2023/07/10 09:20:38;;;;;;;2.30;1.58;;;24.50;55.70;;;;;;4911371;29;20398;-48
2023/07/10 09:23:18;;;;;;;2.63;1.60;;;24.60;56.70;;;;;;4910155;29;20036;-49
2023/07/10 09:25:52;;;;;;;2.13;1.33;;;24.60;56.20;;;;;;4912154;29;20064;-50
2023/07/10 09:28:18;;;;;;;1.65;1.33;;;24.70;57.00;;;;;;4900008;29;20036;-48
2023/07/10 09:30:53;;;;;;;2.03;1.35;;;24.70;57.30;;;;;;4911380;29;20409;-51
2023/07/10 09:33:20;;;;;;;2.63;1.60;;;24.80;56.70;;;;;;4911625;29;20072;-49
2023/07/10 09:35:47;;;;;;;1.83;1.25;;;24.80;57.10;;;;;;4913704;29;20048;-49
2023/07/10 09:38:18;;;;;;;2.35;1.50;;;24.90;56.10;;;;;;4915044;29;20450;-48
2023/07/10 09:40:48;;;;;;;3.03;1.38;;;24.90;56.10;;;;;;4906367;29;20510;-52
2023/07/10 09:43:21;;;;;;;2.55;1.65;;;25.00;56.10;;;;;;4914069;29;20043;-53
2023/07/10 09:45:51;;;;;;;2.45;1.27;;;25.00;56.00;;;;;;4914190;29;20607;-48
2023/07/10 09:48:34;;;;;;;3.10;1.45;;;25.10;55.20;;;;;;4907581;29;20443;-48
2023/07/10 09:51:06;;;;;;;2.85;1.20;;;25.10;54.70;;;;;;4911211;29;20068;-50
2023/07/10 09:53:46;;;;;;;2.00;1.20;;;25.10;55.50;;;;;;4906594;29;20053;-49
2023/07/10 09:56:22;;;;;;;4.38;1.80;;;25.20;54.80;;;;;;4913336;29;20075;-50
2023/07/10 09:58:51;;;;;;;3.00;1.20;;;25.30;54.80;;;;;;4916385;29;20048;-51
2023/07/10 10:01:17;;;;;;;1.40;1.17;;;25.30;55.40;;;;;;4915550;29;20044;-52
2023/07/10 10:03:45;;;;;;;2.97;1.10;;;25.30;54.50;;;;;;4907834;29;20406;-49
2023/07/10 10:06:22;;;;;;;2.55;1.55;;;25.40;55.10;;;;;;4910362;29;20473;-52
2023/07/10 10:08:50;;;;;;;2.67;1.30;;;25.40;54.10;;;;;;4905530;29;20045;-53
2023/07/10 10:11:28;;;;;;;2.97;1.40;;;25.40;54.60;;;;;;4914438;29;20462;-51
2023/07/10 10:13:58;;;;;;;4.82;1.60;;;25.50;54.90;;;;;;4913788;29;20538;-51
2023/07/10 10:16:34;;;;;;;3.45;1.40;;;25.60;54.50;;;;;;4912131;29;20056;-55
2023/07/10 10:19:24;;;;;;;3.28;1.17;;;25.60;55.10;;;;;;4903046;29;20068;-55
2023/07/10 10:21:51;;;;;;;2.05;1.20;;;25.60;53.90;;;;;;4913835;29;20060;-51
2023/07/10 10:24:18;;;;;;;1.63;1.40;;;25.70;54.20;;;;;;4908052;29;20469;-55
2023/07/10 10:27:03;;;;;;;4.40;1.77;;;25.80;54.40;;;;;;4913799;29;20048;-53
2023/07/10 10:29:54;;;;;;;1.73;1.13;;;25.90;53.50;;;;;;4909584;29;20513;-55
2023/07/10 10:32:41;;;;;;;2.97;1.70;;;25.90;53.30;;;;;;4913119;29;20455;-55
2023/07/10 10:35:08;;;;;;;3.08;1.30;;;25.90;52.80;;;;;;4913085;29;20082;-54
2023/07/10 10:37:54;;;;;;;3.67;1.60;;;26.00;53.00;;;;;;4908862;29;20054;-56
2023/07/10 10:40:27;;;;;;;3.03;1.30;;;26.10;53.50;;;;;;4907332;29;20135;-55
2023/07/10 10:43:15;;;;;;;2.88;1.00;;;26.10;53.30;;;;;;4911833;29;20462;-55
2023/07/10 10:45:45;;;;;;;3.20;1.27;;;26.10;52.20;;;;;;4908873;29;20466;-55
2023/07/10 10:48:22;;;;;;;3.00;1.40;;;26.20;52.90;;;;;;4896857;29;20048;-53
2023/07/10 10:51:02;;;;;;;2.92;1.10;;;26.20;52.30;;;;;;4913259;29;20087;-54
2023/07/10 10:53:34;;;;;;;3.75;1.70;;;26.30;51.80;;;;;;4907651;29;20052;-55
2023/07/10 10:56:19;;;;;;;3.58;1.90;;;26.30;53.00;;;;;;4912078;29;20064;-54
2023/07/10 10:59:12;;;;;;;2.35;0.93;;;26.40;51.60;;;;;;4912357;29;20055;-56
2023/07/10 11:01:45;;;;;;;1.80;1.35;;;26.50;51.90;;;;;;4909500;29;20099;-55
2023/07/10 11:04:25;;;;;;;1.55;1.30;;;26.50;52.10;;;;;;4913004;29;20093;-56
2023/07/10 11:06:58;;;;;;;3.65;1.40;;;26.60;50.90;;;;;;4914241;29;20058;-55
2023/07/10 11:09:38;;;;;;;3.67;1.55;;;26.60;49.90;;;;;;4906615;29;20052;-56
2023/07/10 11:12:09;;;;;;;2.63;1.02;;;26.60;50.20;;;;;;4907818;29;20045;-52
2023/07/10 11:14:36;;;;;;;2.72;1.65;;;26.60;50.10;;;;;;4913465;29;20131;-55
2023/07/10 11:17:02;;;;;;;3.88;1.48;;;26.60;50.30;;;;;;4914932;29;20119;-55
2023/07/10 11:19:31;;;;;;;2.72;1.50;;;26.60;49.90;;;;;;4905517;29;20071;-56
2023/07/10 11:22:10;;;;;;;1.58;1.23;;;26.70;50.60;;;;;;4914118;29;20140;-55
2023/07/10 11:24:37;;;;;;;4.00;1.45;;;26.70;49.10;;;;;;4899444;29;20051;-55
2023/07/10 11:27:12;;;;;;;2.33;1.20;;;26.70;49.40;;;;;;4907112;29;20075;-56
2023/07/10 11:29:44;;;;;;;1.95;1.13;;;26.80;48.60;;;;;;4912924;29;20520;-56
2023/07/10 11:32:17;;;;;;;3.80;1.02;;;26.80;48.00;;;;;;4910184;29;20071;-55
2023/07/10 11:34:52;;;;;;;2.13;1.05;;;26.90;48.60;;;;;;4907750;29;20060;-55
2023/07/10 11:37:47;;;;;;;3.83;1.40;;;26.90;49.10;;;;;;4914255;29;20420;-58
2023/07/10 11:40:41;;;;;;;3.05;1.15;;;27.00;49.00;;;;;;4905587;29;20044;-53
2023/07/10 11:43:26;;;;;;;1.98;1.13;;;27.10;49.60;;;;;;4906870;29;20056;-54
2023/07/10 11:46:04;;;;;;;4.05;2.03;;;27.20;48.30;;;;;;4912935;29;20497;-55
2023/07/10 11:48:59;;;;;;;2.97;1.52;;;27.30;46.90;;;;;;4908979;29;20056;-55
2023/07/10 11:51:28;;;;;;;3.00;1.48;;;27.30;46.80;;;;;;4893537;29;20425;-54
2023/07/10 11:54:04;;;;;;;3.42;1.17;;;27.40;46.80;;;;;;4902447;29;20128;-55
2023/07/10 11:56:32;;;;;;;1.38;0.73;;;27.40;46.40;;;;;;4912797;29;20075;-55
2023/07/10 11:58:59;;;;;;;2.80;1.38;;;27.50;47.70;;;;;;4912260;29;20055;-54
2023/07/10 12:01:30;;;;;;;2.60;1.20;;;27.50;47.20;;;;;;4913320;29;20072;-55
2023/07/10 12:03:57;;;;;;;2.38;1.15;;;27.60;46.70;;;;;;4906978;29;20052;-55
2023/07/10 12:06:26;;;;;;;2.10;0.75;;;27.70;47.40;;;;;;4912904;29;20048;-54
2023/07/10 12:08:58;;;;;;;2.42;1.15;;;27.70;46.70;;;;;;4911989;29;20062;-52
2023/07/10 12:11:47;;;;;;;2.25;0.85;;;27.90;46.70;;;;;;4910138;29;20040;-51
2023/07/10 12:14:16;;;;;;;1.52;1.38;;;27.90;46.60;;;;;;4905930;29;20509;-52
2023/07/10 12:16:50;;;;;;;1.67;1.52;;;28.00;46.70;;;;;;4913357;29;20044;-53
2023/07/10 12:19:37;;;;;;;2.38;0.82;;;28.10;46.40;;;;;;4908395;29;20148;-53
2023/07/10 12:22:25;;;;;;;2.90;1.50;;;28.20;46.00;;;;;;4911164;29;20134;-55
2023/07/10 12:24:59;;;;;;;1.98;0.98;;;28.30;45.50;;;;;;4907206;29;20131;-53
2023/07/10 12:27:32;;;;;;;4.32;1.23;;;28.30;46.30;;;;;;4913103;29;20553;-51
2023/07/10 12:30:25;;;;;;;1.73;1.08;;;28.40;45.20;;;;;;4912984;29;20040;-54
2023/07/10 12:32:54;;;;;;;1.75;1.20;;;28.50;45.70;;;;;;4907184;29;20128;-55
2023/07/10 12:35:29;;;;;;;2.22;1.10;;;28.60;46.00;;;;;;4912794;29;20059;-55
2023/07/10 12:38:00;;;;;;;1.42;1.13;;;28.70;45.40;;;;;;4910017;29;20139;-55
2023/07/10 12:40:29;;;;;;;1.52;1.23;;;28.80;44.90;;;;;;4895898;29;20123;-55
2023/07/10 12:42:56;;;;;;;2.58;1.23;;;28.90;45.30;;;;;;4905073;29;20044;-55
2023/07/10 12:45:32;;;;;;;2.28;0.90;;;29.00;44.10;;;;;;4912360;29;20123;-55
2023/07/10 12:48:14;;;;;;;2.30;0.52;;;29.10;43.90;;;;;;4912866;29;20124;-53
2023/07/10 12:50:46;;;;;;;1.02;0.90;;;29.10;43.90;;;;;;4907034;29;20087;-54
2023/07/10 12:53:29;;;;;;;3.92;1.23;;;29.20;44.40;;;;;;4903791;29;20044;-55
2023/07/10 12:56:24;;;;;;;2.75;1.05;;;29.30;44.20;;;;;;4910775;29;20131;-53
2023/07/10 12:58:52;;;;;;;1.02;0.98;;;29.40;43.20;;;;;;4909077;29;20127;-54
2023/07/10 13:01:35;;;;;;;4.10;1.35;;;29.50;43.80;;;;;;4909825;29;20048;-54
2023/07/10 13:04:31;;;;;;;4.18;1.70;;;29.50;43.10;;;;;;4892091;29;20051;-51
2023/07/10 13:07:12;;;;;;;4.05;1.48;;;29.60;44.10;;;;;;4908042;29;20067;-55